Borough, Connecticut
Current Conditions -  °F | °C
As of 6:56 PM on Wednesday 22 Oct 2014 (Local Time) from KGON Reporting Station
Moderate Rain Moderate Rain  
Wind Chill: 50°   Ceiling: 1900
Heat Index: 50°   Visibility: 4mi
Dew Point: 48°   Wind: 22mph
Humidity: 93%   Direction: 20°NNE
Pressure: 29.73"   Gusts: 39mph
Location:  41.3595°N, 72.0439°W
Report Text: KGON 222256Z 02019G34KT 4SM RA BR BKN019 BKN042 OVC080 10/09 A2973 RMK AO2 PK WND 02038/2215 SLP068 P0004 T01000089
Loading
Personal Weather Stations






























Interactive Weather Map
Tropical Storm Tracking
New forecast layout! Learn more

10-Day Weather Forecast

Advertisements
Track Severe Weather on mobile